Port Clements, Canada
Current Conditions -  °F | °C
As of 2:00 PM on Monday 20 Oct 2014 (Local Time) from CZMT Reporting Station
Broken Clouds Broken Clouds  
Wind Chill: 54°   Ceiling: 1500
Heat Index: 54°   Visibility: 15mi
Dew Point: 50°   Wind: 3mph
Humidity: 88%   Direction: 210°SSW
Pressure: 29.43"   Gusts: NA
Location:  53.68°N, 132.17°W
Report Text: CZMT 202100Z 21003KT 170V260 15SM BKN015TCU 12/10 A2943 RMK TCU7 SLP965 DENSITY ALT 200FT
Loading
Personal Weather Stations






























Interactive Weather Map New forecast layout! Learn more

10-Day Weather Forecast

Advertisements
Track Severe Weather on mobile